首页
METAR-TAF:

METAR-TAF

机场 :

Sachs Harbour, 西北特區, 加拿大

纬度: 72-00N, 经度: 125-17W, 海拔: 86米

当前天气观测

该预报发布于19分钟前的17:00 UTC
风速18节,风向东转东南
温度 -32°C
湿度 74%
气压 1021 hPa
能見度: 9.7公里
少量云层高于500英尺
少量云层高于21000英尺
冰针, 浅雾

METAR: CYSY 171700Z 12018KT 6SM IC MIFG FEW005 FEW210 M32/M35 A3016 RMK ST1CI1 ST TR SLP231

时间: 10:19 (17:19 UTC)

预报

该预报发布于1小时和14分钟前的16:05 UTC
预报有效从17日的 16点(UTC)到 17日的 24点(UTC)
风速18节,风向东转东南
能見度: 1.6公里
少量云层高于500英尺
高吹雪
短暂存在
从 17日的 16点(UTC)到 17日的 24点(UTC)
能見度: 6.4公里
高吹雪

TAF: CYSY 171605Z 1716/1724 12018KT 1SM BLSN FEW005 TEMPO 1716/1724 4SM BLSN RMK NXT FCST BY 171900Z

超过4000个机场的气象观测和天气预报(METAR&TAF报告)。

可查询的气象台以黄色和红色小点在地图上表示。

将鼠标移到小点上方,可查看气象台名称。

然后点击查看天气观测和预报。

如需切换地图:点击带黑十字的绿色按钮放大地图;点击带横线的绿色按钮缩小地图;或者点击绿色箭头查看邻近地区的地图。


METAR-TAF: